Ana Sayfa
METAR-TAF:

METAR-TAF

Havaalanları :

Nouakchott, Moritanya

Enlem: 18-18-36N, Boylam: 015-58-11W, yükseklik: 3 m

Güncel hava durumu gözlemi

Rapor saat 16:00 UTC de 27 dakika önce yapıldı.
Rüzgar kuzeybatıdan 19 kt
Sıcaklık 27°C
Nem 54%
Basınç 1011 hPa
Görüş mesafesi 10 km veya daha fazla
1500 m altında bulut yok ve kümülonimbus yok

METAR: GQNO 051600Z 32019KT CAVOK 27/17 Q1011 NOSIG

Saat: 16:27 (16:27 UTC)

Tahmin

Rapor saat 11:00 UTC de 5 saat ve 27 dakika önce yapıldı.
Ayın 05'si saat 12 UTC'den ayın 06'si saat 18 UTC'ye kadar geçerli Tahmin
Rüzgar kuzeydan 16 kt
Görüş mesafesi: 7000 m
Olasılık 30% :
Geçici
ayın 05'si saat 15 UTC'den ayın 05'si saat 19 UTC'ye kadar
Görüş mesafesi: 4000 m
Savrulan kum

TAF: GQNO 051100Z 0512/0618 36016KT 7000 NSC PROB30 TEMPO 0515/0519 4000 BLSA

4.000'den fazla havaalanı için hava durumu gözlemleri ve tahminleri (METAR ve TAF raporları).

Kullanılabilir istasyonlar harita üzerinde sarı ve kırmızı noktalarla gösterilir.

İstasyonun adını görmek için fareyi noktanın üzerinde gezdirin.

Sonrasında hava gözlem ve tahminlerini görmek için tıklayın.

Haritayı değiştirmek için: yaklaştırmak için siyah artı işaretli yeşil düğmeye ve uzaklaştırmak için de eksi işaretli düğmeye hızla tıklayın; bitişik haritalar için yeşil okları kullanın.


METAR-TAF: